Time;durP1;ratioP1;P1;durP2;ratioP2;P2;SDS_P1;SDS_P2;PMS_P1;PMS_P2;Temp;Humidity;BMP_temperature;BMP_pressure;BME280_temperature;BME280_humidity;BME280_pressure;Samples;Min_cycle;Max_cycle;Signal;HPM_P1;HPM_P2
2023/01/23 00:01:34;;;;;;;38.80;21.50;;;;;;;1.13;92.27;101814.69;103487;1253;138363;-78
2023/01/23 00:04:01;;;;;;;37.60;21.00;;;;;;;1.13;92.24;101815.54;103699;1253;110294;-78
2023/01/23 00:06:29;;;;;;;39.10;21.10;;;;;;;1.14;92.20;101815.91;103609;1250;107151;-78
2023/01/23 00:08:57;;;;;;;38.00;21.40;;;;;;;1.10;92.14;101816.66;102781;1250;1003822;-79
2023/01/23 00:11:26;;;;;;;40.00;21.20;;;;;;;1.09;92.31;101821.58;103874;1250;107464;-79
2023/01/23 00:13:54;;;;;;;38.30;21.00;;;;;;;1.07;92.27;101821.35;102795;1253;1003651;-78
2023/01/23 00:16:23;;;;;;;44.10;22.70;;;;;;;1.06;92.37;101821.81;103645;1253;110416;-78
2023/01/23 00:18:52;;;;;;;41.10;23.00;;;;;;;1.06;92.56;101823.02;103576;1253;109466;-78
2023/01/23 00:21:22;;;;;;;43.30;22.60;;;;;;;1.06;92.56;101827.13;103924;1253;139284;-77
2023/01/23 00:23:52;;;;;;;40.10;21.40;;;;;;;1.05;92.67;101830.35;103664;1253;107685;-78
2023/01/23 00:26:22;;;;;;;38.80;21.80;;;;;;;1.05;92.68;101838.23;103795;1250;138414;-77
2023/01/23 00:28:50;;;;;;;42.90;22.60;;;;;;;1.05;92.73;101837.54;103605;1250;109916;-78
2023/01/23 00:31:21;;;;;;;47.30;22.30;;;;;;;1.06;92.64;101845.30;103552;1250;107697;-79
2023/01/23 00:33:52;;;;;;;40.50;21.70;;;;;;;1.06;92.83;101839.63;103755;1250;96420;-78
2023/01/23 00:36:21;;;;;;;37.10;22.10;;;;;;;1.06;92.87;101836.02;103802;1253;107498;-78
2023/01/23 00:38:48;;;;;;;40.00;21.80;;;;;;;1.06;92.89;101831.08;103525;1250;140047;-79
2023/01/23 00:41:16;;;;;;;40.50;22.10;;;;;;;1.07;92.83;101832.80;103620;1251;110603;-79
2023/01/23 00:43:43;;;;;;;42.10;22.30;;;;;;;1.05;92.79;101832.25;103418;1251;138642;-79
2023/01/23 00:46:10;;;;;;;43.00;22.50;;;;;;;1.05;92.86;101830.52;102782;1250;1003805;-79
2023/01/23 00:48:38;;;;;;;39.90;22.60;;;;;;;1.06;92.99;101827.97;103526;1253;108218;-79
2023/01/23 00:51:06;;;;;;;42.10;22.30;;;;;;;1.04;92.88;101832.56;103479;1250;138182;-77
2023/01/23 00:53:33;;;;;;;45.10;22.60;;;;;;;1.05;92.99;101834.82;102851;1250;1003198;-78
2023/01/23 00:56:00;;;;;;;41.30;22.80;;;;;;;1.03;92.85;101831.16;103502;1250;139114;-78
2023/01/23 00:58:28;;;;;;;42.20;22.00;;;;;;;1.03;92.93;101839.20;102960;1249;1003146;-77
2023/01/23 01:00:55;;;;;;;42.50;23.00;;;;;;;1.03;93.02;101838.00;103599;1250;107935;-78
2023/01/23 01:03:24;;;;;;;44.30;22.00;;;;;;;1.04;93.13;101845.05;102736;1251;1005217;-77
2023/01/23 01:05:51;;;;;;;50.60;22.60;;;;;;;1.04;93.12;101847.27;103571;1251;110429;-78
2023/01/23 01:08:19;;;;;;;40.90;21.60;;;;;;;1.04;93.11;101852.91;103408;1251;138714;-78
2023/01/23 01:10:46;;;;;;;40.80;21.30;;;;;;;1.01;92.99;101847.02;103613;1250;96463;-77
2023/01/23 01:13:15;;;;;;;39.30;20.90;;;;;;;0.99;92.98;101848.30;102786;1250;1003023;-77
2023/01/23 01:15:43;;;;;;;40.60;21.50;;;;;;;0.98;93.21;101853.61;103428;1249;138215;-78
2023/01/23 01:18:10;;;;;;;43.00;21.80;;;;;;;0.98;93.23;101853.60;103511;1254;109169;-78
2023/01/23 01:20:40;;;;;;;39.10;22.30;;;;;;;0.98;93.25;101855.66;102689;1250;1003592;-78
2023/01/23 01:23:07;;;;;;;42.00;22.30;;;;;;;0.99;93.41;101856.02;103553;1250;96988;-78
2023/01/23 01:25:34;;;;;;;45.10;21.80;;;;;;;0.99;93.42;101855.00;103458;1250;138208;-77
2023/01/23 01:28:02;;;;;;;41.50;22.30;;;;;;;1.01;93.61;101856.26;103521;1250;96455;-77
2023/01/23 01:30:29;;;;;;;41.60;21.80;;;;;;;1.02;93.55;101858.88;103598;1251;109674;-77
2023/01/23 01:32:57;;;;;;;44.80;22.50;;;;;;;1.03;93.50;101861.13;103449;1250;138673;-76
2023/01/23 01:35:25;;;;;;;40.10;20.70;;;;;;;1.03;93.60;101860.77;103597;1253;96352;-77
2023/01/23 01:37:52;;;;;;;40.10;21.30;;;;;;;1.03;93.55;101864.53;103509;1254;139391;-77
2023/01/23 01:40:22;;;;;;;42.40;21.20;;;;;;;1.04;93.58;101870.23;103577;1251;96438;-79
2023/01/23 01:42:54;;;;;;;44.40;21.80;;;;;;;1.05;93.57;101872.48;103680;1250;110407;-78
2023/01/23 01:45:56;;;;;;;42.30;21.40;;;;;;;1.04;93.42;101872.78;103456;1251;138152;-79
2023/01/23 01:48:26;;;;;;;41.40;21.50;;;;;;;1.03;93.42;101874.30;103493;1252;96589;-77
2023/01/23 01:50:54;;;;;;;45.90;21.70;;;;;;;1.03;93.56;101873.45;103490;1250;138199;-77
2023/01/23 01:53:23;;;;;;;42.80;22.00;;;;;;;1.03;93.66;101876.54;103713;1251;96511;-78
2023/01/23 01:55:51;;;;;;;41.20;20.90;;;;;;;1.04;93.68;101879.30;103436;1249;139280;-77
2023/01/23 01:58:19;;;;;;;43.80;20.80;;;;;;;1.04;93.58;101883.59;103515;1253;106900;-76
2023/01/23 02:00:47;;;;;;;40.30;21.10;;;;;;;1.05;93.75;101883.79;103512;1250;96606;-78
2023/01/23 02:03:15;;;;;;;38.80;21.70;;;;;;;1.07;94.07;101883.53;103480;1253;138763;-77
2023/01/23 02:05:45;;;;;;;45.70;21.40;;;;;;;1.06;93.74;101887.27;103076;1251;1003820;-77
2023/01/23 02:08:17;;;;;;;43.30;21.50;;;;;;;1.05;93.74;101887.40;103429;1249;138422;-77
2023/01/23 02:10:45;;;;;;;42.60;21.70;;;;;;;1.07;93.85;101888.12;103747;1251;107602;-76
2023/01/23 02:13:31;;;;;;;46.20;21.50;;;;;;;1.08;93.94;101886.63;103533;1249;96426;-75
2023/01/23 02:16:02;;;;;;;42.00;21.20;;;;;;;1.09;93.84;101890.63;103545;1249;108487;-76
2023/01/23 02:18:31;;;;;;;38.50;21.30;;;;;;;1.08;93.74;101894.70;103734;1250;96422;-76
2023/01/23 02:21:03;;;;;;;40.80;20.90;;;;;;;1.08;93.79;101900.17;103524;1253;139435;-76
2023/01/23 02:23:42;;;;;;;41.90;20.70;;;;;;;1.07;93.86;101905.63;103546;1250;108224;-77
2023/01/23 02:26:16;;;;;;;47.10;20.80;;;;;;;1.09;94.07;101902.46;103467;1251;138482;-80
2023/01/23 02:28:46;;;;;;;41.00;20.30;;;;;;;1.10;93.97;101897.16;103576;1251;108026;-77
2023/01/23 02:31:17;;;;;;;38.50;21.10;;;;;;;1.09;93.86;101895.58;103527;1251;96587;-78
2023/01/23 02:33:53;;;;;;;46.00;21.40;;;;;;;1.08;93.86;101891.64;103932;1250;139860;-78
2023/01/23 02:36:25;;;;;;;47.60;21.70;;;;;;;1.08;93.93;101890.45;103635;1250;107698;-78
2023/01/23 02:39:02;;;;;;;44.90;21.00;;;;;;;1.07;93.75;101894.98;103420;1253;138162;-77
2023/01/23 02:41:32;;;;;;;39.90;20.60;;;;;;;1.05;93.70;101896.45;103587;1250;108637;-78
2023/01/23 02:44:02;;;;;;;45.90;21.60;;;;;;;1.05;93.98;101899.89;103416;1253;139557;-77
2023/01/23 02:46:29;;;;;;;44.50;21.70;;;;;;;1.05;93.95;101899.90;103539;1252;109236;-78
2023/01/23 02:48:57;;;;;;;39.90;20.90;;;;;;;1.04;93.73;101900.55;103498;1253;107102;-78
2023/01/23 02:51:24;;;;;;;48.30;22.60;;;;;;;1.05;93.92;101903.14;103454;1256;138557;-78
2023/01/23 02:53:52;;;;;;;42.70;22.50;;;;;;;1.07;94.07;101904.91;103672;1256;108133;-79
2023/01/23 02:56:19;;;;;;;43.90;21.70;;;;;;;1.08;94.16;101903.45;103326;1251;138308;-79
2023/01/23 03:01:34;;;;;;;49.60;22.50;;;;;;;1.07;94.01;101897.23;102670;1250;1003215;-77
2023/01/23 03:04:03;;;;;;;49.00;22.20;;;;;;;1.08;94.08;101899.86;103928;1253;96321;-78
2023/01/23 03:06:35;;;;;;;43.90;21.60;;;;;;;1.08;94.00;101900.71;103461;1253;108200;-78
2023/01/23 03:09:04;;;;;;;43.30;22.10;;;;;;;1.07;94.00;101902.73;103525;1250;138382;-79
2023/01/23 03:11:31;;;;;;;40.50;20.90;;;;;;;1.07;94.09;101902.38;102932;1250;1003827;-78
2023/01/23 03:13:59;;;;;;;43.10;21.00;;;;;;;1.08;94.04;101906.86;103426;1255;140441;-78
2023/01/23 03:16:27;;;;;;;45.40;21.30;;;;;;;1.07;93.93;101909.21;103555;1250;96433;-78
2023/01/23 03:18:56;;;;;;;50.90;22.90;;;;;;;1.07;93.91;101910.40;102729;1256;1003669;-76
2023/01/23 03:21:23;;;;;;;46.70;21.40;;;;;;;1.05;93.94;101911.86;103374;1254;138568;-78
2023/01/23 03:23:51;;;;;;;44.20;22.70;;;;;;;1.04;94.00;101910.81;103708;1250;111178;-77
2023/01/23 03:26:18;;;;;;;48.30;23.10;;;;;;;1.04;93.98;101914.40;103365;1252;138253;-77
2023/01/23 03:31:30;;;;;;;45.80;23.00;;;;;;;1.04;94.11;101913.91;103341;1252;138226;-76
2023/01/23 03:33:58;;;;;;;44.40;21.60;;;;;;;1.05;94.04;101909.48;103585;1256;96346;-77
2023/01/23 03:36:26;;;;;;;47.10;22.30;;;;;;;1.04;94.04;101911.84;103533;1250;109740;-76
2023/01/23 03:41:40;;;;;;;45.70;22.80;;;;;;;1.04;94.12;101910.65;103600;1250;96431;-77
2023/01/23 03:44:08;;;;;;;50.00;21.60;;;;;;;1.03;94.13;101913.03;103770;1255;138817;-77
2023/01/23 03:46:36;;;;;;;47.40;23.20;;;;;;;1.05;94.30;101919.23;103634;1250;96433;-77
2023/01/23 03:49:03;;;;;;;47.70;22.80;;;;;;;1.04;94.09;101923.15;103677;1250;110800;-77
2023/01/23 03:51:31;;;;;;;46.90;22.10;;;;;;;1.04;94.13;101929.15;103744;1253;138320;-78
2023/01/23 03:54:11;;;;;;;48.80;21.90;;;;;;;1.06;94.31;101927.15;103575;1251;97145;-77
2023/01/23 03:56:39;;;;;;;47.20;23.10;;;;;;;1.07;94.30;101931.67;103452;1252;138009;-77
2023/01/23 03:59:07;;;;;;;46.40;22.90;;;;;;;1.08;94.32;101936.52;103813;1255;96478;-77
2023/01/23 04:01:35;;;;;;;46.50;22.20;;;;;;;1.10;94.28;101938.96;103514;1250;138343;-76
2023/01/23 04:04:03;;;;;;;51.50;22.50;;;;;;;1.10;94.07;101938.10;103622;1251;108602;-77
2023/01/23 04:06:31;;;;;;;49.60;22.80;;;;;;;1.11;94.28;101941.40;103873;1250;96955;-78
2023/01/23 04:09:00;;;;;;;51.30;22.50;;;;;;;1.11;94.08;101937.64;103409;1250;138007;-77
2023/01/23 04:11:27;;;;;;;46.20;21.70;;;;;;;1.09;94.03;101936.39;103572;1253;96498;-77
2023/01/23 04:13:55;;;;;;;54.60;23.00;;;;;;;1.08;93.90;101936.67;103545;1251;139409;-77
2023/01/23 04:16:23;;;;;;;46.00;21.50;;;;;;;1.07;93.90;101939.00;103577;1251;107390;-77
2023/01/23 04:18:50;;;;;;;45.60;22.00;;;;;;;1.06;93.98;101938.13;103574;1251;97137;-77
2023/01/23 04:21:17;;;;;;;46.60;22.10;;;;;;;1.06;94.06;101938.98;103413;1251;138081;-77
2023/01/23 04:23:45;;;;;;;45.80;20.60;;;;;;;1.05;93.96;101938.79;103646;1249;96443;-78
2023/01/23 04:26:13;;;;;;;48.10;21.70;;;;;;;1.06;94.09;101940.86;103498;1250;138228;-76
2023/01/23 04:28:40;;;;;;;47.20;22.50;;;;;;;1.04;93.85;101946.13;103634;1251;107055;-77
2023/01/23 04:31:09;;;;;;;45.90;22.00;;;;;;;1.03;93.93;101945.73;103563;1250;96936;-78
2023/01/23 04:33:36;;;;;;;48.70;22.30;;;;;;;1.04;94.09;101951.59;103484;1251;138055;-77
2023/01/23 04:36:05;;;;;;;45.70;22.30;;;;;;;1.04;94.07;101953.98;103503;1253;96434;-78
2023/01/23 04:38:34;;;;;;;46.50;22.20;;;;;;;1.05;94.20;101959.86;103628;1250;138107;-77
2023/01/23 04:41:20;;;;;;;49.60;22.00;;;;;;;1.06;94.11;101965.71;103542;1251;107756;-78
2023/01/23 04:43:49;;;;;;;45.00;20.90;;;;;;;1.06;94.07;101959.54;103555;1250;299590;-77
2023/01/23 04:46:16;;;;;;;41.80;21.20;;;;;;;1.05;94.02;101961.73;103479;1250;107824;-78
2023/01/23 04:48:58;;;;;;;44.00;21.40;;;;;;;1.03;94.01;101962.88;103573;1251;96438;-78
2023/01/23 04:51:25;;;;;;;43.20;21.50;;;;;;;1.04;94.11;101957.41;102644;1250;1003010;-77
2023/01/23 04:53:53;;;;;;;42.70;21.00;;;;;;;1.05;94.16;101961.05;103602;1256;107630;-78
2023/01/23 04:56:21;;;;;;;45.10;21.60;;;;;;;1.06;94.18;101965.87;103442;1251;138215;-78
2023/01/23 04:58:48;;;;;;;37.50;19.30;;;;;;;1.06;93.99;101969.64;103530;1255;107626;-77
2023/01/23 05:01:21;;;;;;;38.80;20.30;;;;;;;1.06;93.97;101968.29;103446;1253;96444;-78
2023/01/23 05:03:51;;;;;;;43.10;20.90;;;;;;;1.09;94.09;101967.02;103799;1250;108724;-77
2023/01/23 05:06:19;;;;;;;40.80;20.80;;;;;;;1.07;93.91;101962.50;103490;1249;107631;-78
2023/01/23 05:08:46;;;;;;;46.20;20.80;;;;;;;1.07;93.96;101969.34;103462;1254;138204;-78
2023/01/23 05:11:20;;;;;;;42.40;20.60;;;;;;;1.08;94.03;101970.76;103568;1253;107459;-76
2023/01/23 05:13:48;;;;;;;42.80;21.30;;;;;;;1.09;94.09;101971.48;103528;1250;139597;-77
2023/01/23 05:16:15;;;;;;;42.90;20.90;;;;;;;1.09;94.04;101975.09;103585;1250;109929;-78
2023/01/23 05:19:01;;;;;;;44.60;21.00;;;;;;;1.08;93.89;101976.06;103548;1253;107458;-78
2023/01/23 05:21:30;;;;;;;42.50;20.80;;;;;;;1.07;93.98;101973.13;103614;1250;138183;-77
2023/01/23 05:23:57;;;;;;;44.00;20.40;;;;;;;1.08;93.97;101968.54;103620;1250;107469;-77
2023/01/23 05:26:25;;;;;;;39.40;20.80;;;;;;;1.09;93.99;101972.16;102739;1250;1002971;-75
2023/01/23 05:28:53;;;;;;;43.50;21.30;;;;;;;1.08;93.98;101975.71;103581;1251;110292;-78
2023/01/23 05:31:21;;;;;;;38.80;19.30;;;;;;;1.06;93.91;101975.48;103936;1250;107132;-78
2023/01/23 05:34:09;;;;;;;42.70;21.50;;;;;;;1.07;94.04;101972.60;103518;1250;96981;-78
2023/01/23 05:36:37;;;;;;;39.20;19.80;;;;;;;1.08;93.83;101977.77;103520;1251;107092;-80
2023/01/23 05:39:04;;;;;;;43.50;21.10;;;;;;;1.06;93.91;101986.59;102676;1252;1003043;-79
2023/01/23 05:41:31;;;;;;;40.20;21.10;;;;;;;1.06;93.89;101988.81;103585;1252;110551;-78
2023/01/23 05:44:24;;;;;;;42.40;21.10;;;;;;;1.05;94.00;101987.09;103461;1255;138206;-79
2023/01/23 05:46:55;;;;;;;44.00;21.00;;;;;;;1.06;93.96;101992.59;102810;1250;1003589;-78
2023/01/23 05:49:23;;;;;;;41.20;21.60;;;;;;;1.07;94.00;101996.73;103868;1254;108012;-78
2023/01/23 05:51:50;;;;;;;41.90;21.30;;;;;;;1.07;93.96;101998.83;103368;1250;138055;-79
2023/01/23 05:54:17;;;;;;;43.30;20.90;;;;;;;1.08;93.94;102000.38;102818;1254;1002861;-79
2023/01/23 05:56:44;;;;;;;40.10;21.30;;;;;;;1.08;93.90;102011.20;103420;1256;138705;-78
2023/01/23 05:59:30;;;;;;;43.20;21.40;;;;;;;1.07;93.87;102016.96;103557;1253;96460;-78
2023/01/23 06:02:14;;;;;;;40.80;20.60;;;;;;;1.06;93.77;102017.62;103730;1256;138190;-79
2023/01/23 06:05:05;;;;;;;40.70;20.40;;;;;;;1.06;93.70;102020.16;103597;1251;96446;-78
2023/01/23 06:07:44;;;;;;;38.30;20.70;;;;;;;1.04;93.79;102019.77;103356;1256;139146;-78
2023/01/23 06:10:13;;;;;;;40.30;20.80;;;;;;;1.02;93.79;102022.11;103470;1251;107866;-79
2023/01/23 06:12:40;;;;;;;43.70;21.70;;;;;;;1.01;93.72;102027.38;103478;1250;96551;-78
2023/01/23 06:15:09;;;;;;;39.00;21.10;;;;;;;0.99;93.66;102033.65;103291;1253;138021;-79
2023/01/23 06:17:37;;;;;;;40.90;21.40;;;;;;;0.99;93.83;102038.59;102698;1252;1003590;-78
2023/01/23 06:20:05;;;;;;;42.30;21.70;;;;;;;0.98;93.85;102043.02;103368;1255;138646;-78
2023/01/23 06:22:33;;;;;;;42.10;21.00;;;;;;;0.97;93.89;102048.12;103451;1252;106790;-79
2023/01/23 06:25:05;;;;;;;45.40;21.30;;;;;;;0.96;93.96;102050.82;103474;1253;96429;-78
2023/01/23 06:27:32;;;;;;;47.10;23.40;;;;;;;0.94;93.92;102053.33;103395;1254;138921;-79
2023/01/23 06:30:02;;;;;;;42.80;21.80;;;;;;;0.93;93.88;102053.30;103559;1250;97192;-77
2023/01/23 06:32:29;;;;;;;44.40;22.50;;;;;;;0.93;94.10;102058.29;103263;1252;138212;-74
2023/01/23 06:34:58;;;;;;;43.30;21.80;;;;;;;0.95;94.03;102065.02;103601;1252;108713;-78
2023/01/23 06:37:27;;;;;;;44.00;21.50;;;;;;;0.94;93.91;102073.90;103563;1253;96497;-78
2023/01/23 06:39:55;;;;;;;42.70;22.20;;;;;;;0.94;93.98;102080.74;103476;1251;139747;-77
2023/01/23 06:42:22;;;;;;;44.40;21.50;;;;;;;0.95;94.06;102089.32;103584;1250;96543;-78
2023/01/23 06:44:51;;;;;;;40.30;21.30;;;;;;;0.96;94.07;102096.21;103516;1253;138146;-76
2023/01/23 06:47:19;;;;;;;39.60;21.20;;;;;;;0.97;94.19;102097.14;103554;1251;107374;-78
2023/01/23 06:49:53;;;;;;;43.70;23.20;;;;;;;0.98;94.24;102099.06;103567;1251;138635;-78
2023/01/23 06:52:22;;;;;;;42.90;22.20;;;;;;;1.00;94.21;102103.04;102905;1253;1003807;-76
2023/01/23 06:54:50;;;;;;;38.10;21.80;;;;;;;1.01;94.21;102100.69;103516;1251;96440;-77
2023/01/23 06:57:17;;;;;;;41.80;21.60;;;;;;;1.01;94.10;102104.80;103502;1254;139655;-77
2023/01/23 06:59:45;;;;;;;43.90;22.00;;;;;;;1.02;94.19;102103.96;102980;1253;1002387;-78
2023/01/23 07:02:13;;;;;;;44.80;23.20;;;;;;;1.05;94.56;102104.27;103524;1251;138725;-78
2023/01/23 07:04:44;;;;;;;46.70;23.20;;;;;;;1.10;94.53;102105.15;102745;1251;1002923;-80
2023/01/23 07:07:11;;;;;;;44.10;22.10;;;;;;;1.14;94.66;102106.48;103704;1251;96482;-77
2023/01/23 07:09:39;;;;;;;46.20;23.80;;;;;;;1.18;94.73;102109.39;103441;1251;138004;-77
2023/01/23 07:12:21;;;;;;;42.60;22.70;;;;;;;1.22;94.57;102105.02;102708;1251;1003032;-76
2023/01/23 07:14:49;;;;;;;44.50;23.70;;;;;;;1.26;94.55;102110.30;103410;1251;138310;-77
2023/01/23 07:17:20;;;;;;;43.70;21.90;;;;;;;1.27;94.40;102112.61;103479;1250;107889;-79
2023/01/23 07:19:49;;;;;;;43.80;22.80;;;;;;;1.29;94.24;102113.70;102627;1253;1003474;-77
2023/01/23 07:22:19;;;;;;;48.10;23.80;;;;;;;1.32;94.05;102116.86;103531;1251;109822;-79
2023/01/23 07:24:46;;;;;;;39.40;23.20;;;;;;;1.31;94.00;102119.95;103564;1250;107205;-79
2023/01/23 07:27:14;;;;;;;45.40;22.60;;;;;;;1.32;93.88;102120.30;103374;1250;138525;-78
2023/01/23 07:29:41;;;;;;;45.90;23.70;;;;;;;1.32;93.79;102120.31;103561;1251;106083;-77
2023/01/23 07:32:08;;;;;;;42.40;22.50;;;;;;;1.34;93.74;102122.42;103388;1250;140877;-78
2023/01/23 07:34:37;;;;;;;47.10;22.90;;;;;;;1.36;93.85;102123.70;103464;1253;110133;-76
2023/01/23 07:37:04;;;;;;;40.60;21.90;;;;;;;1.37;93.66;102126.13;102731;1251;1003693;-77
2023/01/23 07:39:31;;;;;;;41.90;22.40;;;;;;;1.37;93.54;102122.73;103447;1253;138332;-76
2023/01/23 07:42:00;;;;;;;40.50;21.80;;;;;;;1.38;93.45;102121.72;103615;1251;109297;-77
2023/01/23 07:44:28;;;;;;;41.50;22.00;;;;;;;1.39;93.45;102124.98;103402;1251;138177;-77
2023/01/23 07:46:56;;;;;;;41.60;21.60;;;;;;;1.38;93.35;102122.23;103455;1254;109118;-78
2023/01/23 07:49:23;;;;;;;42.70;22.40;;;;;;;1.38;93.25;102119.82;103498;1251;107771;-79
2023/01/23 07:51:50;;;;;;;39.00;21.60;;;;;;;1.37;93.16;102124.10;103341;1254;137955;-77
2023/01/23 07:54:17;;;;;;;43.60;24.40;;;;;;;1.38;93.10;102122.41;103477;1256;108167;-76
2023/01/23 07:56:44;;;;;;;42.00;22.50;;;;;;;1.40;93.39;102125.05;103401;1255;138128;-73
2023/01/23 07:59:12;;;;;;;47.40;23.10;;;;;;;1.40;93.08;102126.76;103398;1249;109194;-74
2023/01/23 08:01:39;;;;;;;47.50;22.70;;;;;;;1.40;93.14;102127.45;103405;1253;139444;-75
2023/01/23 08:04:07;;;;;;;40.70;22.10;;;;;;;1.43;93.22;102134.21;103414;1251;96520;-73
2023/01/23 08:06:35;;;;;;;46.50;23.70;;;;;;;1.43;93.03;102138.17;103424;1253;107047;-74
2023/01/23 08:09:03;;;;;;;47.10;22.90;;;;;;;1.44;93.15;102138.91;103350;1257;138247;-74
2023/01/23 08:11:30;;;;;;;44.40;22.60;;;;;;;1.44;93.09;102145.80;103509;1255;109883;-74
2023/01/23 08:14:00;;;;;;;40.70;22.80;;;;;;;1.45;93.00;102147.67;103423;1257;140105;-74
2023/01/23 08:16:27;;;;;;;41.60;22.10;;;;;;;1.45;93.11;102147.02;103593;1253;96965;-76
2023/01/23 08:18:55;;;;;;;41.40;22.30;;;;;;;1.46;93.03;102148.95;103598;1254;108137;-76
2023/01/23 08:21:22;;;;;;;48.10;23.50;;;;;;;1.48;93.02;102146.79;103509;1251;138676;-75
2023/01/23 08:23:49;;;;;;;40.80;23.20;;;;;;;1.51;92.99;102146.52;103473;1251;110181;-75
2023/01/23 08:26:17;;;;;;;41.70;22.40;;;;;;;1.54;92.93;102147.98;103157;1251;138132;-75
2023/01/23 08:28:45;;;;;;;44.10;23.40;;;;;;;1.57;92.91;102147.41;103440;1253;96463;-75
2023/01/23 08:31:13;;;;;;;39.50;22.60;;;;;;;1.59;92.85;102153.30;103552;1253;106825;-78
2023/01/23 08:33:41;;;;;;;39.10;20.80;;;;;;;1.60;92.74;102163.30;103429;1251;138202;-77
2023/01/23 08:36:12;;;;;;;42.10;22.60;;;;;;;1.62;92.66;102166.63;103536;1257;110058;-77
2023/01/23 08:38:39;;;;;;;46.90;24.20;;;;;;;1.62;92.70;102165.06;103428;1256;138142;-77
2023/01/23 08:41:08;;;;;;;49.60;23.50;;;;;;;1.62;92.75;102169.40;103495;1253;98974;-77
2023/01/23 08:43:36;;;;;;;43.80;24.50;;;;;;;1.65;92.70;102166.39;103390;1253;138089;-76
2023/01/23 08:46:04;;;;;;;38.20;21.10;;;;;;;1.68;92.65;102173.36;102730;1251;1002645;-78
2023/01/23 08:48:33;;;;;;;40.40;21.50;;;;;;;1.70;92.56;102178.06;103556;1253;111094;-79
2023/01/23 08:51:04;;;;;;;41.80;22.40;;;;;;;1.70;92.50;102187.14;103377;1251;138383;-78
2023/01/23 08:53:33;;;;;;;40.80;21.90;;;;;;;1.72;92.51;102189.59;103430;1251;96420;-79
2023/01/23 08:56:05;;;;;;;42.20;21.70;;;;;;;1.71;92.40;102189.92;103449;1255;139258;-78
2023/01/23 08:58:32;;;;;;;45.60;23.10;;;;;;;1.71;92.37;102194.90;103524;1251;98195;-79
2023/01/23 09:00:59;;;;;;;43.50;22.10;;;;;;;1.71;92.19;102192.85;103559;1250;110077;-77
2023/01/23 09:03:27;;;;;;;40.10;20.80;;;;;;;1.70;92.16;102190.40;102649;1251;1003446;-76
2023/01/23 09:05:54;;;;;;;40.60;22.90;;;;;;;1.69;92.14;102188.48;103513;1253;96504;-77
2023/01/23 09:08:22;;;;;;;39.50;21.60;;;;;;;1.72;92.17;102186.35;103426;1251;138018;-76
2023/01/23 09:10:49;;;;;;;40.70;23.10;;;;;;;1.74;92.28;102186.25;102733;1252;1003463;-78
2023/01/23 09:13:18;;;;;;;41.80;21.30;;;;;;;1.76;92.15;102182.88;103554;1253;110138;-77
2023/01/23 09:15:46;;;;;;;38.00;21.00;;;;;;;1.77;92.13;102180.34;103320;1251;138350;-74
2023/01/23 09:18:13;;;;;;;42.30;22.80;;;;;;;1.77;91.89;102175.88;103387;1251;96313;-75
2023/01/23 09:20:40;;;;;;;42.70;23.60;;;;;;;1.77;91.92;102181.05;102635;1254;1002817;-75
2023/01/23 09:23:08;;;;;;;40.20;22.90;;;;;;;1.78;92.02;102179.17;103519;1251;96446;-74
2023/01/23 09:25:35;;;;;;;46.50;23.30;;;;;;;1.79;91.86;102175.98;103385;1253;138290;-72
2023/01/23 09:28:03;;;;;;;47.00;23.70;;;;;;;1.80;91.93;102173.64;103526;1255;108904;-75
2023/01/23 09:30:30;;;;;;;44.90;22.50;;;;;;;1.80;91.82;102175.69;103486;1251;96452;-80
2023/01/23 09:32:58;;;;;;;43.90;23.80;;;;;;;1.80;91.84;102169.85;103377;1251;139099;-78
2023/01/23 09:35:25;;;;;;;47.10;23.00;;;;;;;1.81;91.89;102167.81;102687;1253;1003221;-80
2023/01/23 09:38:03;;;;;;;43.60;23.20;;;;;;;1.81;92.01;102161.13;103434;1250;139004;-79
2023/01/23 09:40:34;;;;;;;43.60;22.80;;;;;;;1.82;91.88;102159.95;103467;1251;107164;-79
2023/01/23 09:43:11;;;;;;;45.70;23.40;;;;;;;1.82;91.80;102158.75;103303;1254;96478;-79
2023/01/23 09:45:40;;;;;;;45.10;24.40;;;;;;;1.86;91.85;102159.04;103205;1250;140206;-80
2023/01/23 09:48:21;;;;;;;43.00;23.00;;;;;;;1.88;91.82;102159.80;104086;1251;96679;-79
2023/01/23 09:50:56;;;;;;;43.50;22.00;;;;;;;1.87;91.68;102158.39;103414;1252;137475;-78
2023/01/23 09:53:30;;;;;;;45.20;23.90;;;;;;;1.89;91.75;102158.63;103558;1251;107275;-79
2023/01/23 09:56:04;;;;;;;44.50;23.10;;;;;;;1.90;91.74;102151.99;103461;1251;139160;-80
2023/01/23 09:58:37;;;;;;;45.20;22.90;;;;;;;1.92;91.73;102153.41;103557;1253;107616;-78
2023/01/23 10:01:05;;;;;;;47.70;22.90;;;;;;;1.94;91.78;102150.39;103436;1254;96421;-80
2023/01/23 10:03:33;;;;;;;46.90;22.30;;;;;;;1.94;91.50;102157.23;103378;1254;138076;-79
2023/01/23 10:06:21;;;;;;;40.30;21.50;;;;;;;1.95;91.54;102160.88;102699;1251;1003060;-81
2023/01/23 10:09:04;;;;;;;40.60;21.90;;;;;;;1.96;91.58;102162.64;103430;1254;138313;-80
2023/01/23 10:11:41;;;;;;;43.70;23.00;;;;;;;1.99;91.52;102160.69;103499;1251;107507;-81
2023/01/23 10:14:29;;;;;;;40.80;22.10;;;;;;;1.99;91.42;102165.33;103459;1251;138315;-82
2023/01/23 10:17:07;;;;;;;38.70;22.00;;;;;;;2.00;91.26;102161.06;103531;1253;109947;-79
2023/01/23 10:19:57;;;;;;;44.60;22.50;;;;;;;2.00;91.33;102162.80;103293;1253;138811;-74
2023/01/23 10:22:35;;;;;;;40.10;21.40;;;;;;;2.01;91.30;102163.84;103832;1251;96459;-77
2023/01/23 10:25:10;;;;;;;43.90;23.10;;;;;;;2.02;91.37;102163.54;103562;1253;107761;-76
2023/01/23 10:27:42;;;;;;;41.70;22.90;;;;;;;2.04;91.15;102162.58;103450;1251;138876;-75
2023/01/23 10:30:23;;;;;;;40.00;22.00;;;;;;;2.05;91.30;102159.20;103594;1251;109754;-79
2023/01/23 10:32:56;;;;;;;42.20;22.70;;;;;;;2.08;91.23;102160.48;103381;1254;138772;-83
2023/01/23 10:35:29;;;;;;;40.50;22.70;;;;;;;2.10;91.26;102162.27;102649;1258;1002622;-79
2023/01/23 10:38:05;;;;;;;45.70;23.50;;;;;;;2.14;91.32;102161.68;103406;1257;141488;-78
2023/01/23 10:43:18;;;;;;;43.90;23.20;;;;;;;2.19;91.08;102163.41;103114;1251;1003543;-76
2023/01/23 10:45:47;;;;;;;52.20;27.60;;;;;;;2.21;91.00;102163.83;103536;1251;107218;-77
2023/01/23 10:48:41;;;;;;;42.90;22.70;;;;;;;2.24;90.84;102163.90;103540;1257;96453;-77
2023/01/23 10:51:42;;;;;;;39.00;21.60;;;;;;;2.22;90.64;102159.57;103486;1251;107572;-77
2023/01/23 10:54:20;;;;;;;41.80;22.30;;;;;;;2.21;90.57;102157.12;103413;1256;138196;-75
2023/01/23 10:57:01;;;;;;;45.50;22.80;;;;;;;2.22;90.80;102152.20;103551;1258;109947;-76
2023/01/23 10:59:32;;;;;;;42.00;23.00;;;;;;;2.25;90.73;102150.89;103317;1257;138823;-74
2023/01/23 11:02:15;;;;;;;46.20;24.30;;;;;;;2.27;90.74;102155.95;103504;1254;97015;-75
2023/01/23 11:04:45;;;;;;;45.30;23.80;;;;;;;2.27;90.61;102152.52;103383;1251;138622;-79
2023/01/23 11:07:15;;;;;;;46.00;23.90;;;;;;;2.27;90.45;102154.89;102795;1251;1003003;-75
2023/01/23 11:09:52;;;;;;;47.60;24.60;;;;;;;2.25;90.55;102157.25;103601;1256;110866;-79
2023/01/23 11:12:22;;;;;;;49.00;24.30;;;;;;;2.23;90.42;102154.27;103576;1251;107647;-78
2023/01/23 11:14:50;;;;;;;43.30;23.40;;;;;;;2.22;90.35;102158.00;102891;1251;1002885;-75
2023/01/23 11:17:21;;;;;;;45.00;24.40;;;;;;;2.22;90.62;102155.43;102647;1251;1003725;-73
2023/01/23 11:19:51;;;;;;;50.80;25.20;;;;;;;2.22;90.63;102156.48;103583;1251;96348;-74
2023/01/23 11:22:37;;;;;;;46.10;24.70;;;;;;;2.22;90.58;102158.69;103646;1251;138802;-74
2023/01/23 11:25:27;;;;;;;48.60;24.90;;;;;;;2.20;90.49;102158.48;103583;1251;106770;-74
2023/01/23 11:28:00;;;;;;;53.50;25.20;;;;;;;2.17;90.36;102156.30;103516;1252;138510;-73